Time;durP1;ratioP1;P1;durP2;ratioP2;P2;SDS_P1;SDS_P2;PMS_P1;PMS_P2;Temp;Humidity;BMP_temperature;BMP_pressure;BME280_temperature;BME280_humidity;BME280_pressure;Samples;Min_cycle;Max_cycle;Signal;HPM_P1;HPM_P2
2023/11/05 00:00:20;;;;;;;16.08;2.95;;;;;;;7.37;100.00;97108.16;4998448;28;20141;-79
2023/11/05 00:02:45;;;;;;;21.77;3.50;;;;;;;7.40;100.00;97111.22;4996577;28;20125;-77
2023/11/05 00:05:14;;;;;;;20.13;2.78;;;;;;;7.41;100.00;97112.00;4996624;28;20042;-79
2023/11/05 00:07:40;;;;;;;21.92;3.47;;;;;;;7.43;100.00;97104.66;4995084;28;20030;-79
2023/11/05 00:10:06;;;;;;;13.02;2.53;;;;;;;7.40;100.00;97097.16;4996073;28;20034;-79
2023/11/05 00:12:32;;;;;;;15.30;2.30;;;;;;;7.34;100.00;97093.50;4994743;28;20041;-79
2023/11/05 00:14:57;;;;;;;20.92;3.53;;;;;;;7.32;100.00;97094.75;4995892;28;20035;-79
2023/11/05 00:17:23;;;;;;;15.68;3.30;;;;;;;7.26;100.00;97093.75;4996093;28;20477;-79
2023/11/05 00:19:48;;;;;;;13.07;2.53;;;;;;;7.19;100.00;97090.31;4996273;28;20477;-78
2023/11/05 00:22:13;;;;;;;31.98;3.85;;;;;;;7.14;100.00;97085.66;4995699;28;20041;-78
2023/11/05 00:24:39;;;;;;;24.77;3.03;;;;;;;7.10;100.00;97081.81;4995663;28;20030;-78
2023/11/05 00:27:04;;;;;;;19.73;3.63;;;;;;;7.07;100.00;97084.88;4995848;28;20417;-78
2023/11/05 00:29:30;;;;;;;22.15;3.30;;;;;;;7.01;100.00;97083.88;4994698;28;20038;-77
2023/11/05 00:31:55;;;;;;;14.68;3.50;;;;;;;6.97;100.00;97076.56;4995307;28;20044;-79
2023/11/05 00:34:21;;;;;;;16.33;3.17;;;;;;;6.90;100.00;97076.59;4995685;28;20118;-79
2023/11/05 00:36:46;;;;;;;21.20;3.83;;;;;;;6.88;100.00;97075.97;4995993;28;20117;-79
2023/11/05 00:39:12;;;;;;;18.85;3.40;;;;;;;6.85;100.00;97077.22;4995480;28;20081;-80
2023/11/05 00:41:37;;;;;;;15.02;3.30;;;;;;;6.81;100.00;97065.44;4996335;28;20066;-79
2023/11/05 00:44:03;;;;;;;16.30;3.05;;;;;;;6.81;100.00;97067.28;4995665;28;20118;-79
2023/11/05 00:46:28;;;;;;;21.52;3.38;;;;;;;6.82;100.00;97074.16;4993831;28;20038;-78
2023/11/05 00:48:55;;;;;;;23.55;4.00;;;;;;;6.80;100.00;97063.81;4996003;28;20049;-80
2023/11/05 00:51:20;;;;;;;23.50;3.47;;;;;;;6.82;100.00;97069.72;4995343;28;20033;-77
2023/11/05 00:53:46;;;;;;;25.73;3.50;;;;;;;6.84;100.00;97059.72;4995371;28;20034;-80
2023/11/05 00:56:11;;;;;;;16.20;3.75;;;;;;;6.85;100.00;97069.28;4994301;28;20518;-79
2023/11/05 00:58:37;;;;;;;22.48;3.55;;;;;;;6.88;100.00;97063.59;4977523;28;20065;-79
2023/11/05 01:01:02;;;;;;;20.88;3.17;;;;;;;6.92;100.00;97069.25;4994993;28;20467;-79
2023/11/05 01:03:28;;;;;;;20.42;3.53;;;;;;;6.96;100.00;97070.47;4995389;28;20088;-78
2023/11/05 01:05:53;;;;;;;15.05;3.13;;;;;;;7.00;100.00;97071.69;4995108;28;20042;-78
2023/11/05 01:08:19;;;;;;;15.23;2.90;;;;;;;7.04;100.00;97074.72;4993888;28;20461;-79
2023/11/05 01:10:44;;;;;;;24.83;3.22;;;;;;;7.09;100.00;97068.81;4994807;28;20474;-79
2023/11/05 01:13:10;;;;;;;16.75;2.67;;;;;;;7.11;100.00;97064.94;4994475;28;20518;-78
2023/11/05 01:15:36;;;;;;;17.45;3.17;;;;;;;7.17;100.00;97068.59;4994853;28;20062;-78
2023/11/05 01:18:01;;;;;;;18.27;3.13;;;;;;;7.21;100.00;97062.66;4995197;28;20022;-79
2023/11/05 01:20:27;;;;;;;23.85;3.28;;;;;;;7.23;100.00;97063.25;4994607;28;20070;-80
2023/11/05 01:22:53;;;;;;;17.33;3.20;;;;;;;7.24;100.00;97053.50;4994710;28;20039;-79
2023/11/05 01:25:19;;;;;;;18.02;3.00;;;;;;;7.26;100.00;97059.38;4993483;28;20097;-80
2023/11/05 01:27:44;;;;;;;24.90;3.47;;;;;;;7.30;100.00;97060.59;4993122;28;20403;-79
2023/11/05 01:30:10;;;;;;;20.60;2.88;;;;;;;7.32;100.00;97041.88;4994585;28;20034;-80
2023/11/05 01:32:36;;;;;;;15.40;2.83;;;;;;;7.32;100.00;97045.31;4994332;28;20030;-80
2023/11/05 01:35:03;;;;;;;13.02;2.60;;;;;;;7.33;100.00;97038.19;4994887;28;20023;-81
2023/11/05 01:37:28;;;;;;;25.85;4.05;;;;;;;7.34;100.00;97040.63;4994545;28;20040;-81
2023/11/05 01:39:55;;;;;;;26.30;3.60;;;;;;;7.36;100.00;97037.75;4994892;28;20034;-79
2023/11/05 01:42:21;;;;;;;16.40;2.85;;;;;;;7.37;100.00;97040.19;4993966;28;20034;-81
2023/11/05 01:44:46;;;;;;;20.65;3.25;;;;;;;7.39;100.00;97043.47;4994343;28;20065;-80
2023/11/05 01:47:12;;;;;;;19.25;3.78;;;;;;;7.41;100.00;97046.69;4994107;28;20065;-80
2023/11/05 01:49:37;;;;;;;16.38;2.67;;;;;;;7.40;100.00;97045.09;4993273;28;20034;-79
2023/11/05 01:52:03;;;;;;;20.48;3.00;;;;;;;7.41;100.00;97044.03;4994133;28;20121;-80
2023/11/05 01:54:28;;;;;;;17.83;2.90;;;;;;;7.37;100.00;97045.47;4994242;28;20038;-81
2023/11/05 01:56:54;;;;;;;14.82;2.85;;;;;;;7.37;100.00;97047.31;4994396;28;20474;-81
2023/11/05 01:59:19;;;;;;;18.00;3.15;;;;;;;7.37;100.00;97045.47;4992822;28;20533;-81
2023/11/05 02:01:48;;;;;;;25.25;3.38;;;;;;;7.38;100.00;97049.75;4994360;28;20026;-80
2023/11/05 02:04:14;;;;;;;21.85;2.63;;;;;;;7.34;100.00;97045.91;4994140;28;20030;-80
2023/11/05 02:06:40;;;;;;;16.52;2.53;;;;;;;7.35;100.00;97039.59;4994813;28;20034;-81
2023/11/05 02:09:06;;;;;;;13.15;2.47;;;;;;;7.35;100.00;97036.16;4993843;28;20410;-79
2023/11/05 02:11:31;;;;;;;17.77;2.85;;;;;;;7.35;100.00;97038.81;4994045;28;20502;-80
2023/11/05 02:13:57;;;;;;;21.67;2.83;;;;;;;7.37;100.00;97036.75;4994061;28;20042;-81
2023/11/05 02:16:31;;;;;;;15.48;2.80;;;;;;;7.36;100.00;97035.94;4994299;28;20030;-80
2023/11/05 02:18:58;;;;;;;24.45;3.47;;;;;;;7.38;100.00;97036.53;4994463;28;20026;-81
2023/11/05 02:21:33;;;;;;;13.98;2.78;;;;;;;7.40;100.00;97038.97;4994097;28;20041;-82
2023/11/05 02:23:59;;;;;;;17.02;2.85;;;;;;;7.40;100.00;97037.16;4994617;28;20165;-81
2023/11/05 02:26:24;;;;;;;18.80;2.88;;;;;;;7.43;100.00;97030.63;4993943;28;20034;-82
2023/11/05 02:28:49;;;;;;;14.80;2.88;;;;;;;7.48;100.00;97038.75;4992922;28;20445;-82
2023/11/05 02:31:15;;;;;;;15.57;2.55;;;;;;;7.52;100.00;97036.47;4993351;28;20129;-81
2023/11/05 02:33:42;;;;;;;14.18;2.85;;;;;;;7.55;100.00;97034.22;4992920;28;20427;-82
2023/11/05 02:36:09;;;;;;;15.65;3.20;;;;;;;7.58;100.00;97032.97;4992789;28;20498;-80
2023/11/05 02:38:34;;;;;;;15.23;2.85;;;;;;;7.59;100.00;97026.66;4993823;28;20042;-80
2023/11/05 02:40:59;;;;;;;15.25;2.67;;;;;;;7.62;100.00;97028.88;4994764;28;20470;-82
2023/11/05 02:43:25;;;;;;;11.70;3.17;;;;;;;7.65;100.00;97032.94;4994625;28;20038;-82
2023/11/05 02:45:50;;;;;;;19.75;2.90;;;;;;;7.65;100.00;97033.75;4993824;28;20026;-82
2023/11/05 02:48:16;;;;;;;10.60;2.42;;;;;;;7.65;100.00;97031.09;4992324;28;20062;-83
2023/11/05 02:50:41;;;;;;;17.52;3.10;;;;;;;7.65;100.00;97032.94;4993806;28;20030;-82
2023/11/05 02:53:08;;;;;;;16.70;3.20;;;;;;;7.64;100.00;97034.75;4993270;28;20034;-80
2023/11/05 02:55:33;;;;;;;20.38;3.28;;;;;;;7.64;100.00;97023.38;4995830;28;20038;-80
2023/11/05 02:57:59;;;;;;;16.02;3.15;;;;;;;7.63;100.00;97021.75;4996033;28;20060;-79
2023/11/05 03:00:25;;;;;;;17.27;3.17;;;;;;;7.64;100.00;97018.09;4996136;28;20117;-80
2023/11/05 03:02:50;;;;;;;16.70;2.78;;;;;;;7.64;100.00;97018.09;4996796;28;20041;-81
2023/11/05 03:05:15;;;;;;;17.33;3.33;;;;;;;7.64;100.00;97023.38;4995172;28;20034;-81
2023/11/05 03:07:41;;;;;;;22.20;3.53;;;;;;;7.64;100.00;97020.72;4994523;28;20070;-81
2023/11/05 03:10:06;;;;;;;15.90;3.85;;;;;;;7.65;100.00;97025.00;4996133;28;20034;-80
2023/11/05 03:12:32;;;;;;;19.52;4.13;;;;;;;7.65;100.00;97023.16;4996320;28;20050;-81
2023/11/05 03:14:57;;;;;;;18.02;4.40;;;;;;;7.66;100.00;97022.16;4996025;28;20066;-83
2023/11/05 03:17:22;;;;;;;23.58;5.63;;;;;;;7.67;100.00;97022.94;4996557;28;20085;-80
2023/11/05 03:19:48;;;;;;;15.65;4.70;;;;;;;7.67;100.00;97017.66;4996011;28;20031;-81
2023/11/05 03:22:13;;;;;;;24.67;5.47;;;;;;;7.68;100.00;97016.63;4994829;28;20481;-82
2023/11/05 03:24:39;;;;;;;17.83;4.68;;;;;;;7.68;100.00;97014.78;4996142;28;20039;-82
2023/11/05 03:27:07;;;;;;;19.95;4.82;;;;;;;7.69;100.00;97018.28;4995965;28;20049;-80
2023/11/05 03:29:32;;;;;;;19.67;5.07;;;;;;;7.70;100.00;97023.34;4995412;28;20654;-79
2023/11/05 03:31:58;;;;;;;20.90;5.40;;;;;;;7.70;100.00;97019.88;4995454;28;20113;-81
2023/11/05 03:34:23;;;;;;;12.68;4.95;;;;;;;7.71;100.00;97024.16;4995665;28;20121;-81
2023/11/05 03:36:48;;;;;;;16.23;5.10;;;;;;;7.72;100.00;97021.28;4977948;28;20125;-81
2023/11/05 03:39:14;;;;;;;18.13;5.30;;;;;;;7.74;100.00;97029.81;4994326;28;20031;-82
2023/11/05 03:41:40;;;;;;;15.27;5.18;;;;;;;7.73;100.00;97030.84;4995542;28;20085;-80
2023/11/05 03:44:05;;;;;;;18.20;5.57;;;;;;;7.73;100.00;97028.22;4995217;28;20030;-81
2023/11/05 03:46:31;;;;;;;18.83;5.25;;;;;;;7.73;100.00;97028.22;4993819;28;20030;-83
2023/11/05 03:48:56;;;;;;;16.00;5.30;;;;;;;7.74;100.00;97032.47;4995255;28;20424;-81
2023/11/05 03:51:22;;;;;;;22.05;6.05;;;;;;;7.73;100.00;97027.38;4995273;28;20038;-80
2023/11/05 03:53:47;;;;;;;21.85;5.35;;;;;;;7.73;100.00;97027.38;4995453;28;20046;-80
2023/11/05 03:56:15;;;;;;;15.25;5.13;;;;;;;7.72;100.00;97028.44;4995649;28;20340;-84
2023/11/05 03:58:40;;;;;;;14.18;4.95;;;;;;;7.69;100.00;97032.31;4994698;28;20497;-81
2023/11/05 04:01:07;;;;;;;14.23;4.82;;;;;;;7.68;100.00;97029.88;4995106;28;20049;-81
2023/11/05 04:03:32;;;;;;;18.65;5.75;;;;;;;7.65;100.00;97036.38;4995433;28;20034;-80
2023/11/05 04:05:58;;;;;;;14.80;5.18;;;;;;;7.66;100.00;97034.53;4994119;28;20061;-80
2023/11/05 04:08:23;;;;;;;16.25;5.40;;;;;;;7.69;100.00;97034.16;4995069;28;20034;-81
2023/11/05 04:10:49;;;;;;;11.15;4.97;;;;;;;7.69;100.00;97034.94;4995213;28;20042;-81
2023/11/05 04:13:14;;;;;;;11.02;4.93;;;;;;;7.70;100.00;97044.50;4995604;28;20038;-81
2023/11/05 04:15:40;;;;;;;17.52;4.85;;;;;;;7.71;100.00;97034.72;4995106;28;20350;-80
2023/11/05 04:18:06;;;;;;;17.35;5.00;;;;;;;7.73;100.00;97043.25;4994989;28;20038;-80
2023/11/05 04:20:31;;;;;;;17.67;5.03;;;;;;;7.75;100.00;97041.22;4994995;28;20084;-81
2023/11/05 04:22:57;;;;;;;15.93;5.07;;;;;;;7.76;100.00;97045.47;4994833;28;20027;-82
2023/11/05 04:25:22;;;;;;;15.77;4.70;;;;;;;7.75;100.00;97044.66;4994505;28;20042;-82
2023/11/05 04:27:47;;;;;;;16.48;5.03;;;;;;;7.80;100.00;97048.53;4994658;28;20513;-80
2023/11/05 04:30:13;;;;;;;15.68;4.38;;;;;;;7.79;100.00;97047.69;4994751;28;20038;-80
2023/11/05 04:32:38;;;;;;;13.15;5.30;;;;;;;7.79;100.00;97045.03;4995150;28;20378;-80
2023/11/05 04:35:04;;;;;;;11.35;4.57;;;;;;;7.83;100.00;97045.44;4995033;28;20105;-83
2023/11/05 04:37:29;;;;;;;15.98;4.85;;;;;;;7.83;100.00;97040.94;4994461;28;20030;-82
2023/11/05 04:39:55;;;;;;;18.17;4.60;;;;;;;7.83;100.00;97038.31;4994145;28;20050;-80
2023/11/05 04:42:20;;;;;;;13.65;4.88;;;;;;;7.84;100.00;97045.22;4994271;28;20026;-81
2023/11/05 04:44:45;;;;;;;13.27;4.60;;;;;;;7.86;100.00;97045.00;4994571;28;20045;-81
2023/11/05 04:47:10;;;;;;;21.15;5.13;;;;;;;7.86;100.00;97045.81;4994595;28;20035;-81
2023/11/05 04:49:36;;;;;;;12.52;4.30;;;;;;;7.86;100.00;97047.66;4994203;28;20049;-81
2023/11/05 04:52:02;;;;;;;17.10;5.35;;;;;;;7.88;100.00;97050.91;4994327;28;20037;-81
2023/11/05 04:54:27;;;;;;;19.17;4.47;;;;;;;7.87;100.00;97055.38;4994183;28;20192;-82
2023/11/05 04:56:52;;;;;;;19.38;4.82;;;;;;;7.88;100.00;97057.03;4994098;28;20101;-81
2023/11/05 04:59:18;;;;;;;16.60;4.60;;;;;;;7.88;100.00;97054.38;4994428;28;20332;-83
2023/11/05 05:01:43;;;;;;;14.90;4.75;;;;;;;7.88;100.00;97050.91;4994253;28;20053;-83
2023/11/05 05:04:09;;;;;;;17.05;4.78;;;;;;;7.87;100.00;97058.03;4994119;28;20026;-83
2023/11/05 05:06:34;;;;;;;23.25;5.45;;;;;;;7.90;100.00;97059.44;4993718;28;20096;-84
2023/11/05 05:09:00;;;;;;;14.98;4.97;;;;;;;7.89;100.00;97057.81;4993941;28;20450;-82
2023/11/05 05:11:25;;;;;;;18.25;4.90;;;;;;;7.92;100.00;97062.69;4992977;28;20033;-83
2023/11/05 05:13:51;;;;;;;17.13;4.78;;;;;;;7.92;100.00;97062.69;4993737;28;20034;-83
2023/11/05 05:16:17;;;;;;;10.57;4.68;;;;;;;7.94;100.00;97065.91;4992494;28;20368;-83
2023/11/05 05:18:43;;;;;;;19.38;4.57;;;;;;;7.93;100.00;97070.41;4993624;28;20443;-83
2023/11/05 05:21:08;;;;;;;18.52;4.95;;;;;;;7.97;100.00;97072.63;4993998;28;20081;-84
2023/11/05 05:23:33;;;;;;;14.77;4.90;;;;;;;7.97;100.00;97075.28;4993901;28;20038;-85
2023/11/05 05:25:59;;;;;;;20.92;5.53;;;;;;;7.99;100.00;97073.25;4993539;28;20053;-82
2023/11/05 05:28:24;;;;;;;17.77;4.75;;;;;;;7.98;100.00;97072.41;4993544;28;20034;-82
2023/11/05 05:30:49;;;;;;;15.02;4.90;;;;;;;7.98;100.00;97080.34;4992348;28;20042;-83
2023/11/05 05:33:15;;;;;;;24.50;5.75;;;;;;;8.00;100.00;97069.53;4993475;28;20048;-82
2023/11/05 05:35:40;;;;;;;14.38;4.72;;;;;;;7.99;100.00;97074.03;4993527;28;20355;-84
2023/11/05 05:38:05;;;;;;;15.85;5.07;;;;;;;7.99;100.00;97074.03;4993397;28;20026;-84
2023/11/05 05:40:31;;;;;;;19.30;4.28;;;;;;;8.00;100.00;97080.13;4993239;28;20034;-83
2023/11/05 05:42:56;;;;;;;12.02;4.63;;;;;;;7.97;100.00;97081.38;4993385;28;20474;-83
2023/11/05 05:45:22;;;;;;;17.80;5.13;;;;;;;7.98;100.00;97080.34;4993698;28;20474;-83
2023/11/05 05:47:47;;;;;;;22.13;4.68;;;;;;;7.98;100.00;97084.84;4993411;28;20124;-84
2023/11/05 05:50:13;;;;;;;20.35;4.75;;;;;;;8.00;100.00;97077.50;4992057;28;20038;-83
2023/11/05 05:52:38;;;;;;;14.98;4.43;;;;;;;8.00;100.00;97083.63;4993091;28;20034;-83
2023/11/05 05:55:04;;;;;;;13.98;4.22;;;;;;;7.99;100.00;97083.84;4993060;28;20072;-82
2023/11/05 05:57:30;;;;;;;13.65;4.57;;;;;;;8.01;100.00;97090.50;4992810;28;20030;-82
2023/11/05 05:59:56;;;;;;;10.77;4.22;;;;;;;8.01;100.00;97092.34;4991379;28;20390;-83
2023/11/05 06:02:21;;;;;;;14.38;4.28;;;;;;;8.02;100.00;97092.13;4993192;28;20030;-82
2023/11/05 06:04:48;;;;;;;16.63;4.45;;;;;;;8.01;100.00;97093.16;4993385;28;20046;-83
2023/11/05 06:07:13;;;;;;;19.00;5.18;;;;;;;8.00;100.00;97090.72;4992982;28;20034;-83
2023/11/05 06:09:38;;;;;;;15.75;4.68;;;;;;;8.01;100.00;97092.34;4992963;28;20038;-83
2023/11/05 06:12:05;;;;;;;17.27;4.85;;;;;;;8.01;100.00;97098.44;4992954;28;20038;-83
2023/11/05 06:14:30;;;;;;;18.85;4.50;;;;;;;8.02;100.00;97105.38;4992962;28;20073;-83
2023/11/05 06:16:55;;;;;;;18.15;5.15;;;;;;;8.02;100.00;97100.09;4993117;28;20450;-82
2023/11/05 06:19:21;;;;;;;16.77;4.00;;;;;;;8.04;100.00;97097.22;4991555;28;20038;-84
2023/11/05 06:21:46;;;;;;;14.50;4.25;;;;;;;8.04;100.00;97113.09;4992622;28;20030;-83
2023/11/05 06:24:12;;;;;;;19.88;4.78;;;;;;;8.03;100.00;97112.31;4991467;28;20034;-82
2023/11/05 06:26:41;;;;;;;19.48;4.32;;;;;;;8.07;100.00;97115.31;4992852;28;20030;-83
2023/11/05 06:29:07;;;;;;;19.75;4.05;;;;;;;8.07;100.00;97118.78;4994317;28;20112;-83
2023/11/05 06:31:32;;;;;;;20.17;4.30;;;;;;;8.04;100.00;97127.16;4996948;28;20117;-83
2023/11/05 06:33:58;;;;;;;13.95;4.05;;;;;;;8.06;100.00;97127.75;4996825;28;20038;-83
2023/11/05 06:36:24;;;;;;;14.45;4.32;;;;;;;8.06;100.00;97126.94;4979812;28;20042;-83
2023/11/05 06:38:49;;;;;;;13.25;4.07;;;;;;;8.06;100.00;97142.81;4996822;28;20034;-84
2023/11/05 06:41:15;;;;;;;21.13;4.30;;;;;;;8.07;100.00;97139.16;4996671;28;20409;-83
2023/11/05 06:43:40;;;;;;;19.45;4.22;;;;;;;8.09;100.00;97143.22;4997083;28;20030;-83
2023/11/05 06:46:06;;;;;;;16.77;4.10;;;;;;;8.10;100.00;97149.31;4996773;28;20057;-83
2023/11/05 06:48:33;;;;;;;14.88;4.55;;;;;;;8.09;100.00;97153.81;4996865;28;20041;-83
2023/11/05 06:50:58;;;;;;;13.98;3.40;;;;;;;8.10;100.00;97158.06;4995051;28;20046;-83
2023/11/05 06:53:23;;;;;;;12.95;3.55;;;;;;;8.10;100.00;97163.34;4996840;28;20034;-84
2023/11/05 06:55:49;;;;;;;19.58;4.20;;;;;;;8.10;100.00;97165.19;4997208;28;20026;-83
2023/11/05 06:58:17;;;;;;;16.50;3.55;;;;;;;8.10;100.00;97163.34;4996483;28;20121;-83
2023/11/05 07:00:44;;;;;;;20.63;4.22;;;;;;;8.11;100.00;97162.34;4996100;28;20043;-82
2023/11/05 07:03:10;;;;;;;17.00;3.65;;;;;;;8.12;100.00;97166.63;4996417;28;20498;-81
2023/11/05 07:05:35;;;;;;;18.38;4.07;;;;;;;8.12;100.00;97171.09;4996496;28;20043;-81
2023/11/05 07:08:03;;;;;;;12.45;3.60;;;;;;;8.16;100.00;97174.94;4996400;28;20137;-81
2023/11/05 07:10:28;;;;;;;14.77;4.05;;;;;;;8.16;100.00;97174.94;4996268;28;20038;-79
2023/11/05 07:12:54;;;;;;;11.20;3.40;;;;;;;8.19;100.00;97181.66;4996332;28;20061;-80
2023/11/05 07:15:19;;;;;;;17.05;3.80;;;;;;;8.22;100.00;97186.53;4995905;28;20475;-79
2023/11/05 07:17:45;;;;;;;25.63;4.68;;;;;;;8.24;100.00;97190.59;4996258;28;20034;-79
2023/11/05 07:20:14;;;;;;;15.15;3.70;;;;;;;8.26;100.00;97190.38;4995771;28;20038;-79
2023/11/05 07:22:40;;;;;;;17.45;3.75;;;;;;;8.26;100.00;97195.66;4995868;28;20065;-79
2023/11/05 07:25:08;;;;;;;22.45;4.65;;;;;;;8.29;100.00;97195.25;4996016;28;20092;-79
2023/11/05 07:27:34;;;;;;;19.50;4.10;;;;;;;8.32;100.00;97207.25;4995959;28;20537;-80
2023/11/05 07:29:59;;;;;;;20.42;4.63;;;;;;;8.33;100.00;97215.00;4996430;28;20030;-79
2023/11/05 07:32:24;;;;;;;16.58;4.13;;;;;;;8.34;100.00;97210.50;4995904;28;20041;-80
2023/11/05 07:34:51;;;;;;;25.63;4.53;;;;;;;8.34;100.00;97219.25;4995614;28;20034;-80
2023/11/05 07:37:17;;;;;;;23.35;4.68;;;;;;;8.35;100.00;97218.22;4996254;28;20038;-82
2023/11/05 07:39:42;;;;;;;20.38;4.30;;;;;;;8.38;100.00;97223.09;4995822;28;20030;-80
2023/11/05 07:42:08;;;;;;;22.25;4.95;;;;;;;8.39;100.00;97231.84;4994648;28;20038;-81
2023/11/05 07:44:33;;;;;;;18.10;4.20;;;;;;;8.42;100.00;97236.72;4995592;28;20027;-80
2023/11/05 07:46:58;;;;;;;15.63;4.28;;;;;;;8.45;100.00;97246.94;4995760;28;20031;-80
2023/11/05 07:49:24;;;;;;;20.70;4.30;;;;;;;8.47;100.00;97243.03;4994879;28;20351;-81
2023/11/05 07:51:50;;;;;;;12.52;4.18;;;;;;;8.52;100.00;97245.03;4995292;28;20041;-80
2023/11/05 07:54:16;;;;;;;19.75;4.20;;;;;;;8.57;100.00;97244.41;4995856;28;20038;-80
2023/11/05 07:56:41;;;;;;;15.27;3.47;;;;;;;8.58;100.00;97248.69;4994249;28;20507;-80
2023/11/05 07:59:07;;;;;;;15.85;3.50;;;;;;;8.62;100.00;97244.59;4995514;28;20134;-78
2023/11/05 08:01:32;;;;;;;20.40;3.50;;;;;;;8.64;100.00;97253.94;4995567;28;20034;-79
2023/11/05 08:03:57;;;;;;;17.58;3.25;;;;;;;8.69;100.00;97253.31;4995902;28;20347;-79
2023/11/05 08:06:23;;;;;;;18.15;3.33;;;;;;;8.75;100.00;97259.59;4994941;28;20033;-79
2023/11/05 08:08:48;;;;;;;15.55;3.25;;;;;;;8.81;100.00;97266.69;4996361;28;20042;-80
2023/11/05 08:11:13;;;;;;;17.98;3.22;;;;;;;8.95;100.00;97275.34;4996142;28;20113;-79
2023/11/05 08:13:39;;;;;;;16.17;3.65;;;;;;;9.12;100.00;97267.66;4994535;28;20066;-80
2023/11/05 08:16:05;;;;;;;12.73;3.05;;;;;;;9.26;100.00;97274.47;4995907;28;20053;-79
2023/11/05 08:18:30;;;;;;;17.15;2.80;;;;;;;9.40;100.00;97277.81;4995701;28;20038;-79
2023/11/05 08:20:56;;;;;;;17.00;3.00;;;;;;;9.44;100.00;97281.66;4995613;28;20042;-79
2023/11/05 08:23:21;;;;;;;17.42;3.20;;;;;;;9.42;100.00;97293.50;4995153;28;20037;-79
2023/11/05 08:25:47;;;;;;;11.68;2.88;;;;;;;9.45;100.00;97301.88;4995561;28;20037;-80
2023/11/05 08:28:14;;;;;;;12.65;2.55;;;;;;;9.57;100.00;97290.50;4995080;28;20117;-77
2023/11/05 08:30:39;;;;;;;12.55;2.38;;;;;;;9.63;100.00;97295.78;4995320;28;20034;-78
2023/11/05 08:33:05;;;;;;;13.52;2.45;;;;;;;9.69;100.00;97296.75;4995339;28;20041;-80
2023/11/05 08:35:30;;;;;;;12.38;2.90;;;;;;;9.68;100.00;97293.25;4995479;28;20463;-79
2023/11/05 08:37:57;;;;;;;11.63;2.33;;;;;;;9.73;100.00;97305.88;4995360;28;20030;-78
2023/11/05 08:40:25;;;;;;;13.00;2.70;;;;;;;9.78;100.00;97302.56;4994733;28;20031;-78
2023/11/05 08:42:51;;;;;;;13.63;3.38;;;;;;;9.73;100.00;97305.06;4994537;28;20509;-80
2023/11/05 08:45:16;;;;;;;16.67;3.28;;;;;;;9.67;100.00;97318.19;4994827;28;20034;-79
2023/11/05 08:47:42;;;;;;;12.52;3.28;;;;;;;9.67;100.00;97320.84;4994587;28;20084;-79
2023/11/05 08:50:07;;;;;;;12.65;3.10;;;;;;;9.67;100.00;97325.31;4993025;28;20514;-79
2023/11/05 08:52:33;;;;;;;8.75;3.53;;;;;;;9.67;100.00;97333.28;4993685;28;20324;-80
2023/11/05 08:54:59;;;;;;;16.40;3.58;;;;;;;9.70;100.00;97343.47;4993608;28;20026;-79
2023/11/05 08:57:25;;;;;;;15.90;3.05;;;;;;;9.66;100.00;97353.72;4993704;28;20068;-81
2023/11/05 08:59:51;;;;;;;15.10;3.28;;;;;;;9.62;100.00;97351.72;4994109;28;20061;-81
2023/11/05 09:02:16;;;;;;;12.23;3.10;;;;;;;9.56;100.00;97360.56;4993783;28;20034;-79
2023/11/05 09:04:42;;;;;;;11.98;3.35;;;;;;;9.48;100.00;97367.75;4993762;28;20120;-79
2023/11/05 09:07:10;;;;;;;15.27;3.58;;;;;;;9.41;100.00;97369.66;4993050;28;20458;-80
2023/11/05 09:09:36;;;;;;;18.52;3.92;;;;;;;9.32;100.00;97376.25;4993079;28;20053;-81
2023/11/05 09:12:03;;;;;;;19.40;4.43;;;;;;;9.27;100.00;97381.38;4993994;28;20031;-78
2023/11/05 09:14:29;;;;;;;9.35;4.25;;;;;;;9.21;100.00;97380.44;4993817;28;20038;-78
2023/11/05 09:16:55;;;;;;;9.85;4.40;;;;;;;9.17;100.00;97392.47;4994076;28;20149;-78
2023/11/05 09:19:20;;;;;;;13.02;4.00;;;;;;;9.11;100.00;97394.16;4993823;28;20432;-80
2023/11/05 09:21:45;;;;;;;11.30;4.50;;;;;;;9.08;100.00;97399.06;4993801;28;20049;-76
2023/11/05 09:24:11;;;;;;;11.88;4.05;;;;;;;9.05;100.00;97405.63;4993590;28;20085;-77
2023/11/05 09:26:37;;;;;;;16.85;4.40;;;;;;;9.02;100.00;97411.34;4993780;28;20099;-79
2023/11/05 09:29:06;;;;;;;12.13;4.00;;;;;;;8.99;100.00;97417.88;4994216;28;20046;-78
2023/11/05 09:31:32;;;;;;;14.27;3.70;;;;;;;8.96;100.00;97428.09;4993316;28;20374;-77
2023/11/05 09:33:57;;;;;;;13.57;3.42;;;;;;;8.96;100.00;97444.00;4994005;28;20038;-79
2023/11/05 09:36:23;;;;;;;7.82;2.53;;;;;;;9.00;100.00;97458.44;4994263;28;20054;-80
2023/11/05 09:38:48;;;;;;;13.80;2.33;;;;;;;9.06;100.00;97468.25;4993062;28;20038;-86
2023/11/05 09:41:17;;;;;;;9.95;2.03;;;;;;;9.11;100.00;97488.81;4993616;28;20042;-77
2023/11/05 09:43:49;;;;;;;8.82;1.85;;;;;;;9.09;100.00;97490.84;4991852;28;20030;-77
2023/11/05 09:46:15;;;;;;;8.45;1.88;;;;;;;9.05;100.00;97498.44;4993375;28;20486;-76
2023/11/05 09:48:43;;;;;;;9.95;1.88;;;;;;;9.06;100.00;97504.53;4993250;28;20030;-77
2023/11/05 09:51:12;;;;;;;6.18;1.98;;;;;;;9.04;100.00;97509.25;4993402;28;20498;-76
2023/11/05 09:53:38;;;;;;;10.55;2.33;;;;;;;9.02;100.00;97512.13;4992405;28;20045;-76
2023/11/05 09:56:04;;;;;;;15.80;2.50;;;;;;;9.00;100.00;97535.34;4992935;28;20043;-76
2023/11/05 09:58:29;;;;;;;14.18;2.53;;;;;;;9.03;100.00;97544.75;4993007;28;20128;-76
2023/11/05 10:00:55;;;;;;;13.13;2.80;;;;;;;9.08;100.00;97542.28;4991993;28;20093;-80
2023/11/05 10:03:21;;;;;;;10.18;2.50;;;;;;;9.20;100.00;97561.00;4993189;28;20038;-77
2023/11/05 10:05:47;;;;;;;10.32;2.15;;;;;;;9.22;100.00;97561.59;4993100;28;20027;-78
2023/11/05 10:08:13;;;;;;;9.57;1.98;;;;;;;9.26;100.00;97571.59;4992830;28;20038;-77
2023/11/05 10:10:44;;;;;;;6.88;2.10;;;;;;;9.35;100.00;97580.13;4993495;28;20133;-79
2023/11/05 10:13:10;;;;;;;8.95;2.42;;;;;;;9.55;100.00;97581.88;4993316;28;20041;-78
2023/11/05 10:15:37;;;;;;;6.80;2.30;;;;;;;9.75;100.00;97587.06;4991528;28;20031;-79
2023/11/05 10:18:04;;;;;;;13.25;2.20;;;;;;;9.91;100.00;97593.72;4992729;28;20065;-79
2023/11/05 10:20:30;;;;;;;7.60;2.15;;;;;;;9.96;100.00;97602.69;4993067;28;20031;-78
2023/11/05 10:23:07;;;;;;;6.13;2.10;;;;;;;9.99;100.00;97598.78;4992865;28;20041;-79
2023/11/05 10:25:34;;;;;;;5.05;2.00;;;;;;;10.06;100.00;97576.47;4993222;28;20053;-83
2023/11/05 10:28:00;;;;;;;8.43;2.28;;;;;;;10.27;100.00;97597.56;4992847;28;20130;-80
2023/11/05 10:30:28;;;;;;;6.95;1.70;;;;;;;10.62;100.00;97597.09;4993484;28;20125;-80
2023/11/05 10:32:53;;;;;;;4.95;1.73;;;;;;;10.87;100.00;97591.75;4993302;28;20316;-84
2023/11/05 10:35:32;;;;;;;4.63;1.80;;;;;;;10.93;100.00;97602.31;4992528;28;20497;-81
2023/11/05 10:37:57;;;;;;;4.18;1.80;;;;;;;10.84;100.00;97616.94;4993072;28;20109;-80
2023/11/05 10:40:23;;;;;;;9.25;1.90;;;;;;;10.62;100.00;97621.84;4991604;28;20172;-80
2023/11/05 10:42:50;;;;;;;7.30;2.15;;;;;;;10.44;100.00;97629.78;4993147;28;20045;-80
2023/11/05 10:45:17;;;;;;;7.32;3.40;;;;;;;10.34;100.00;97632.91;4992357;28;20034;-80
2023/11/05 10:47:43;;;;;;;10.95;2.60;;;;;;;10.27;100.00;97640.06;4991942;28;20523;-81
2023/11/05 10:50:19;;;;;;;6.47;2.33;;;;;;;10.21;100.00;97645.22;4992476;28;20081;-82
2023/11/05 10:52:47;;;;;;;7.88;2.30;;;;;;;10.14;100.00;97644.44;4993026;28;20034;-82
2023/11/05 10:55:13;;;;;;;6.10;2.70;;;;;;;10.05;100.00;97659.81;4992183;28;20042;-81
2023/11/05 10:57:46;;;;;;;7.25;2.85;;;;;;;9.98;100.00;97663.53;4992198;28;20038;-78
2023/11/05 11:00:24;;;;;;;8.73;3.78;;;;;;;9.94;100.00;97667.66;4991976;28;20033;-79
2023/11/05 11:02:50;;;;;;;8.70;2.97;;;;;;;9.86;100.00;97677.47;4992845;28;20042;-82
2023/11/05 11:05:20;;;;;;;3.80;2.42;;;;;;;9.87;100.00;97673.81;4992547;28;20114;-79
2023/11/05 11:07:45;;;;;;;8.63;3.10;;;;;;;9.89;100.00;97679.72;4992460;28;20045;-79
2023/11/05 11:10:20;;;;;;;10.25;2.70;;;;;;;9.90;100.00;97693.81;4991089;28;20038;-82
2023/11/05 11:12:46;;;;;;;5.85;3.00;;;;;;;9.91;100.00;97695.44;4992234;28;20030;-80
2023/11/05 11:15:33;;;;;;;10.85;2.95;;;;;;;9.94;100.00;97703.00;4993655;28;20088;-77
2023/11/05 11:18:05;;;;;;;11.25;2.67;;;;;;;9.88;100.00;97712.63;4995544;28;20080;-84
2023/11/05 11:20:36;;;;;;;6.05;2.47;;;;;;;9.87;100.00;97721.59;4995562;28;20034;-87